Time;durP1;ratioP1;P1;durP2;ratioP2;P2;SDS_P1;SDS_P2;PMS_P1;PMS_P2;Temp;Humidity;BMP_temperature;BMP_pressure;BME280_temperature;BME280_humidity;BME280_pressure;Samples;Min_cycle;Max_cycle;Signal;HPM_P1;HPM_P2
2020/12/11 00:01:26;;;;;;;49.88;23.58;;;1.50;99.90;;;;;;5056451;28;20028;-69
2020/12/11 00:03:52;;;;;;;54.15;25.27;;;1.50;99.90;;;;;;5053406;28;20389;-69
2020/12/11 00:06:21;;;;;;;46.05;24.45;;;1.50;99.90;;;;;;5060696;28;20032;-69
2020/12/11 00:08:48;;;;;;;51.17;25.75;;;1.50;99.90;;;;;;5062928;28;20099;-69
2020/12/11 00:11:13;;;;;;;50.50;24.20;;;1.50;99.90;;;;;;5058258;28;20150;-69
2020/12/11 00:13:39;;;;;;;44.50;23.27;;;1.50;99.90;;;;;;5055890;28;20507;-69
2020/12/11 00:16:08;;;;;;;46.13;21.50;;;1.60;99.90;;;;;;5057385;28;20021;-69
2020/12/11 00:18:33;;;;;;;51.55;23.50;;;1.50;99.90;;;;;;5052740;28;20469;-69
2020/12/11 00:21:00;;;;;;;42.58;21.83;;;1.50;99.90;;;;;;5057538;28;20158;-69
2020/12/11 00:23:26;;;;;;;48.33;23.42;;;1.50;99.90;;;;;;5055395;28;20382;-69
2020/12/11 00:25:59;;;;;;;42.30;22.48;;;1.60;99.90;;;;;;5062137;28;20036;-68
2020/12/11 00:28:28;;;;;;;44.00;21.85;;;1.50;99.90;;;;;;5056253;28;20056;-69
2020/12/11 00:30:55;;;;;;;44.00;21.98;;;1.50;99.90;;;;;;5061635;28;20028;-69
2020/12/11 00:33:21;;;;;;;45.03;22.30;;;1.50;99.90;;;;;;5051888;28;20025;-69
2020/12/11 00:35:47;;;;;;;46.30;22.58;;;1.50;99.90;;;;;;5060189;28;20021;-69
2020/12/11 00:38:12;;;;;;;47.65;22.52;;;1.50;99.90;;;;;;5055102;28;20040;-69
2020/12/11 00:40:38;;;;;;;44.30;23.02;;;1.50;99.90;;;;;;5059938;28;20033;-69
2020/12/11 00:43:04;;;;;;;46.58;24.02;;;1.50;99.90;;;;;;5063574;28;20025;-69
2020/12/11 00:45:30;;;;;;;48.42;23.77;;;1.60;99.90;;;;;;5052124;28;20020;-69
2020/12/11 00:47:55;;;;;;;42.60;20.45;;;1.60;99.90;;;;;;5061431;28;20079;-69
2020/12/11 00:50:21;;;;;;;45.25;22.40;;;1.60;99.90;;;;;;5065840;28;20025;-69
2020/12/11 00:52:46;;;;;;;44.03;21.75;;;1.60;99.90;;;;;;5061087;28;20032;-69
2020/12/11 00:55:12;;;;;;;47.05;22.27;;;1.60;99.90;;;;;;5058617;28;20484;-69
2020/12/11 00:57:37;;;;;;;48.65;23.98;;;1.60;99.90;;;;;;5062821;28;20389;-69
2020/12/11 01:00:10;;;;;;;45.10;23.45;;;1.50;99.90;;;;;;5059684;28;20124;-69
2020/12/11 01:02:35;;;;;;;;;;;1.60;99.90;;;;;;5058906;28;20039;-69
2020/12/11 01:05:01;;;;;;;43.40;20.90;;;1.60;99.90;;;;;;5055876;28;19909;-69
2020/12/11 01:07:27;;;;;;;43.65;22.90;;;1.60;99.90;;;;;;5056377;28;20020;-69
2020/12/11 01:09:52;;;;;;;45.10;23.40;;;1.60;99.90;;;;;;5059960;28;20106;-68
2020/12/11 01:12:18;;;;;;;49.35;23.63;;;1.60;99.90;;;;;;5054874;28;20155;-69
2020/12/11 01:14:43;;;;;;;47.72;23.38;;;1.60;99.90;;;;;;5053990;28;20057;-69
2020/12/11 01:17:09;;;;;;;41.08;20.95;;;1.60;99.90;;;;;;5054167;28;20536;-69
2020/12/11 01:19:34;;;;;;;38.35;19.30;;;1.70;99.90;;;;;;5053407;28;20037;-69
2020/12/11 01:22:04;;;;;;;40.72;20.23;;;1.60;99.90;;;;;;5057673;28;20063;-69
2020/12/11 01:24:30;;;;;;;42.10;21.67;;;1.60;99.90;;;;;;5051950;28;20048;-69
2020/12/11 01:26:56;;;;;;;44.40;22.15;;;1.50;99.90;;;;;;5054216;28;20028;-69
2020/12/11 01:29:21;;;;;;;44.50;22.27;;;1.50;99.90;;;;;;5057160;28;20485;-69
2020/12/11 01:31:47;;;;;;;40.72;21.42;;;1.50;99.90;;;;;;5059304;28;20496;-69
2020/12/11 01:34:13;;;;;;;39.05;20.30;;;1.50;99.90;;;;;;5054281;28;20024;-69
2020/12/11 01:36:38;;;;;;;36.92;19.90;;;1.50;99.90;;;;;;5061013;28;20030;-69
2020/12/11 01:39:04;;;;;;;41.35;21.20;;;1.50;99.90;;;;;;5062693;28;20021;-69
2020/12/11 01:41:31;;;;;;;40.65;21.88;;;1.50;99.90;;;;;;5055403;28;20032;-69
2020/12/11 01:44:07;;;;;;;43.33;22.10;;;1.50;99.90;;;;;;5059642;28;20042;-69
2020/12/11 01:46:41;;;;;;;45.05;22.35;;;1.50;99.90;;;;;;5056701;28;20071;-69
2020/12/11 01:49:08;;;;;;;44.50;21.42;;;1.40;99.90;;;;;;5068914;28;20465;-69
2020/12/11 01:51:35;;;;;;;41.92;21.00;;;1.40;99.90;;;;;;5056898;28;20103;-68
2020/12/11 01:54:02;;;;;;;42.08;21.42;;;1.40;99.90;;;;;;5057231;28;20021;-69
2020/12/11 01:56:32;;;;;;;41.83;21.33;;;1.40;99.90;;;;;;5058402;28;20489;-69
2020/12/11 01:59:04;;;;;;;38.22;21.70;;;1.50;99.90;;;;;;5058974;28;20096;-69
2020/12/11 02:01:35;;;;;;;43.43;21.80;;;1.50;99.90;;;;;;5057473;28;20028;-69
2020/12/11 02:04:03;;;;;;;36.53;18.90;;;1.50;99.90;;;;;;5057685;28;20021;-69
2020/12/11 02:06:29;;;;;;;37.42;19.48;;;1.50;99.90;;;;;;5053612;28;20067;-69
2020/12/11 02:08:56;;;;;;;39.72;20.75;;;1.50;99.90;;;;;;5052487;28;20025;-69
2020/12/11 02:11:23;;;;;;;37.33;20.00;;;1.50;99.90;;;;;;5054842;28;20079;-69
2020/12/11 02:13:49;;;;;;;39.20;21.02;;;1.50;99.90;;;;;;5063533;28;20108;-69
2020/12/11 02:16:20;;;;;;;39.88;21.05;;;1.50;99.90;;;;;;5053146;28;20096;-69
2020/12/11 02:18:46;;;;;;;39.28;20.80;;;1.50;99.90;;;;;;5060569;28;20028;-69
2020/12/11 02:21:11;;;;;;;33.70;18.65;;;1.50;99.90;;;;;;5056020;28;20087;-69
2020/12/11 02:23:37;;;;;;;36.88;20.05;;;1.40;99.90;;;;;;5058208;28;20489;-69
2020/12/11 02:26:03;;;;;;;41.55;20.63;;;1.50;99.90;;;;;;5067333;28;20024;-69
2020/12/11 02:28:35;;;;;;;41.25;20.90;;;1.50;99.90;;;;;;5060882;28;20465;-69
2020/12/11 02:31:02;;;;;;;38.90;20.08;;;1.40;99.90;;;;;;5059837;28;20103;-68
2020/12/11 02:33:27;;;;;;;42.05;20.73;;;1.40;99.90;;;;;;5060437;28;20401;-69
2020/12/11 02:35:53;;;;;;;41.78;20.55;;;1.30;99.90;;;;;;5059049;28;20079;-69
2020/12/11 02:38:18;;;;;;;41.42;21.73;;;1.30;99.90;;;;;;5057876;28;20056;-69
2020/12/11 02:40:52;;;;;;;42.35;21.90;;;1.30;99.90;;;;;;5066079;28;20078;-69
2020/12/11 02:43:19;;;;;;;39.35;20.35;;;1.30;99.90;;;;;;5057432;28;20033;-69
2020/12/11 02:45:46;;;;;;;42.92;20.00;;;1.30;99.90;;;;;;5062870;28;20082;-69
2020/12/11 02:48:12;;;;;;;41.95;21.08;;;1.30;99.90;;;;;;5058925;28;20021;-69
2020/12/11 02:50:38;;;;;;;38.55;21.08;;;1.30;99.90;;;;;;5059405;28;20053;-69
2020/12/11 02:53:04;;;;;;;42.45;21.10;;;1.20;99.90;;;;;;5065608;28;20049;-69
2020/12/11 02:55:30;;;;;;;38.92;21.23;;;1.30;99.90;;;;;;5063526;28;20072;-69
2020/12/11 02:57:56;;;;;;;41.42;21.13;;;1.20;99.90;;;;;;5059961;28;20038;-69
2020/12/11 03:00:21;;;;;;;42.72;22.42;;;1.20;99.90;;;;;;5061665;28;20029;-69
2020/12/11 03:02:47;;;;;;;38.45;20.63;;;1.20;99.90;;;;;;5066389;28;20033;-69
2020/12/11 03:05:13;;;;;;;42.53;22.38;;;1.20;99.90;;;;;;5057402;28;20037;-69
2020/12/11 03:07:38;;;;;;;43.92;23.42;;;1.20;99.90;;;;;;5062121;28;20078;-69
2020/12/11 03:10:04;;;;;;;42.05;22.60;;;1.20;99.90;;;;;;5059233;28;20067;-68
2020/12/11 03:12:29;;;;;;;43.67;22.23;;;1.20;99.90;;;;;;5062033;28;20485;-68
2020/12/11 03:14:55;;;;;;;40.85;21.27;;;1.30;99.90;;;;;;5058157;28;20565;-69
2020/12/11 03:17:21;;;;;;;42.28;21.63;;;1.30;99.90;;;;;;5063037;28;20025;-69
2020/12/11 03:19:46;;;;;;;41.42;21.83;;;1.20;99.90;;;;;;5061571;28;20048;-68
2020/12/11 03:22:12;;;;;;;46.90;22.05;;;1.20;99.90;;;;;;5057247;28;20082;-69
2020/12/11 03:24:37;;;;;;;43.30;21.50;;;1.10;99.90;;;;;;5058688;28;20021;-69
2020/12/11 03:27:04;;;;;;;45.10;21.63;;;1.10;99.90;;;;;;5060762;28;20029;-69
2020/12/11 03:29:29;;;;;;;41.25;20.13;;;1.10;99.90;;;;;;5057965;28;20025;-69
2020/12/11 03:31:55;;;;;;;43.00;21.80;;;1.00;99.90;;;;;;5060532;28;20042;-69
2020/12/11 03:34:20;;;;;;;43.13;21.40;;;1.10;99.90;;;;;;5052886;28;20033;-69
2020/12/11 03:36:49;;;;;;;42.58;21.23;;;1.00;99.90;;;;;;5059186;28;20052;-69
2020/12/11 03:39:14;;;;;;;43.63;22.90;;;1.10;99.90;;;;;;5054130;28;20107;-68
2020/12/11 03:41:40;;;;;;;41.40;22.73;;;1.00;99.90;;;;;;5057073;28;20461;-69
2020/12/11 03:44:06;;;;;;;38.20;20.55;;;1.00;99.90;;;;;;5062074;28;20058;-69
2020/12/11 03:46:32;;;;;;;42.55;20.63;;;1.00;99.90;;;;;;5062736;28;20028;-69
2020/12/11 03:48:59;;;;;;;41.97;21.55;;;1.00;99.90;;;;;;5055220;28;20029;-69
2020/12/11 03:51:25;;;;;;;42.40;22.10;;;1.00;99.90;;;;;;5062599;28;20104;-68
2020/12/11 03:53:51;;;;;;;48.78;23.02;;;1.10;99.90;;;;;;5057304;28;20104;-69
2020/12/11 03:56:17;;;;;;;46.03;22.10;;;1.10;99.90;;;;;;5058063;28;20047;-69
2020/12/11 03:58:44;;;;;;;42.78;22.73;;;1.20;99.90;;;;;;5065023;28;20111;-69
2020/12/11 04:01:11;;;;;;;41.88;21.55;;;1.20;99.90;;;;;;5058459;28;20417;-69
2020/12/11 04:03:36;;;;;;;46.63;22.05;;;1.20;99.90;;;;;;5057162;28;20024;-69
2020/12/11 04:06:06;;;;;;;44.45;22.65;;;1.20;99.90;;;;;;5056631;28;20081;-69
2020/12/11 04:08:31;;;;;;;43.58;21.85;;;1.30;99.90;;;;;;5060056;28;21891;-69
2020/12/11 04:10:57;;;;;;;42.88;22.17;;;1.30;99.90;;;;;;5055498;28;20025;-69
2020/12/11 04:13:22;;;;;;;42.08;22.45;;;1.40;99.90;;;;;;5056192;28;20017;-69
2020/12/11 04:15:48;;;;;;;42.97;21.42;;;1.50;99.90;;;;;;5068418;28;20028;-69
2020/12/11 04:18:14;;;;;;;40.72;20.83;;;1.50;99.90;;;;;;5058179;28;20513;-69
2020/12/11 04:20:39;;;;;;;44.28;22.45;;;1.60;99.90;;;;;;5060154;28;20059;-69
2020/12/11 04:23:05;;;;;;;45.70;23.77;;;1.60;99.90;;;;;;5057217;28;20012;-69
2020/12/11 04:25:30;;;;;;;45.05;23.30;;;1.60;99.90;;;;;;5056227;28;20025;-69
2020/12/11 04:27:56;;;;;;;41.70;22.70;;;1.70;99.90;;;;;;5058494;28;20031;-69
2020/12/11 04:30:21;;;;;;;44.58;22.95;;;1.70;99.90;;;;;;5060518;28;20524;-69
2020/12/11 04:32:47;;;;;;;41.65;23.27;;;1.70;99.90;;;;;;5058080;28;20469;-69
2020/12/11 04:35:12;;;;;;;45.17;22.58;;;1.80;99.90;;;;;;5065194;28;20032;-69
2020/12/11 04:37:38;;;;;;;41.35;22.10;;;1.80;99.90;;;;;;5056808;28;20051;-69
2020/12/11 04:40:04;;;;;;;42.80;23.05;;;1.80;99.90;;;;;;5045404;28;20116;-69
2020/12/11 04:42:34;;;;;;;46.08;22.58;;;1.80;99.90;;;;;;5065020;28;20028;-69
2020/12/11 04:45:00;;;;;;;42.33;22.75;;;1.80;99.90;;;;;;5053820;28;20029;-69
2020/12/11 04:47:26;;;;;;;38.75;21.25;;;1.80;99.90;;;;;;5060278;28;20029;-69
2020/12/11 04:49:54;;;;;;;42.25;22.02;;;1.90;99.90;;;;;;5055177;28;20020;-69
2020/12/11 04:52:21;;;;;;;41.90;22.23;;;2.00;99.90;;;;;;5054563;28;20032;-69
2020/12/11 04:54:49;;;;;;;37.28;20.45;;;1.90;99.90;;;;;;5057361;28;20117;-69
2020/12/11 04:57:21;;;;;;;43.65;22.35;;;2.00;99.90;;;;;;5052763;28;20060;-69
2020/12/11 04:59:49;;;;;;;41.78;20.55;;;2.00;99.90;;;;;;5057070;28;20078;-68
2020/12/11 05:02:15;;;;;;;39.30;22.20;;;1.90;99.90;;;;;;5058502;28;20021;-69
2020/12/11 05:04:40;;;;;;;39.75;21.83;;;1.90;99.90;;;;;;5053059;28;20025;-69
2020/12/11 05:07:06;;;;;;;38.88;19.73;;;1.90;99.90;;;;;;5058008;28;20031;-69
2020/12/11 05:09:31;;;;;;;35.53;19.20;;;1.90;99.90;;;;;;5061841;28;20090;-69
2020/12/11 05:11:57;;;;;;;41.60;20.83;;;2.00;99.90;;;;;;5056715;28;20033;-69
2020/12/11 05:14:23;;;;;;;40.63;21.20;;;2.00;99.90;;;;;;5060474;28;20203;-69
2020/12/11 05:17:04;;;;;;;41.25;21.02;;;2.00;99.90;;;;;;5059380;28;20074;-69
2020/12/11 05:19:32;;;;;;;34.78;18.33;;;2.00;99.90;;;;;;5059453;28;20070;-69
2020/12/11 05:22:08;;;;;;;39.05;20.40;;;2.00;99.90;;;;;;5060791;28;20055;-69
2020/12/11 05:24:48;;;;;;;37.60;19.85;;;2.10;99.90;;;;;;5061319;28;20020;-69
2020/12/11 05:27:31;;;;;;;33.28;18.65;;;2.10;99.90;;;;;;5056286;28;20029;-68
2020/12/11 05:30:21;;;;;;;37.42;19.50;;;2.10;99.90;;;;;;5058384;28;20040;-68
2020/12/11 05:32:52;;;;;;;38.08;19.67;;;2.00;99.90;;;;;;5061780;28;20032;-68
2020/12/11 05:35:21;;;;;;;33.85;17.67;;;2.10;99.90;;;;;;5053709;28;20020;-69
2020/12/11 05:37:57;;;;;;;37.00;19.08;;;2.10;99.90;;;;;;5055763;28;20013;-69
2020/12/11 05:40:31;;;;;;;38.08;19.25;;;2.10;99.90;;;;;;5056645;28;20029;-69
2020/12/11 05:43:11;;;;;;;29.30;17.77;;;2.20;99.90;;;;;;5051935;28;20082;-69
2020/12/11 05:45:50;;;;;;;34.92;18.08;;;2.10;99.90;;;;;;5057413;28;20475;-68
2020/12/11 05:48:17;;;;;;;32.33;17.35;;;2.10;99.90;;;;;;5053574;28;20021;-69
2020/12/11 05:50:42;;;;;;;37.40;19.30;;;2.20;99.90;;;;;;5058709;28;20025;-69
2020/12/11 05:53:08;;;;;;;34.17;17.33;;;2.20;99.90;;;;;;5053195;28;20014;-69
2020/12/11 05:55:34;;;;;;;32.67;18.73;;;2.20;99.90;;;;;;5055809;28;20359;-69
2020/12/11 05:57:59;;;;;;;36.78;17.98;;;2.20;99.90;;;;;;5056762;28;20033;-69
2020/12/11 06:00:26;;;;;;;30.90;17.05;;;2.30;99.90;;;;;;5055720;28;20095;-68
2020/12/11 06:02:53;;;;;;;30.30;17.20;;;2.30;99.90;;;;;;5063775;28;20017;-69
2020/12/11 06:05:21;;;;;;;31.50;17.77;;;2.30;99.90;;;;;;5055756;28;20029;-69
2020/12/11 06:07:48;;;;;;;30.50;17.85;;;2.30;99.90;;;;;;5059568;28;20032;-69
2020/12/11 06:10:16;;;;;;;35.35;18.10;;;2.30;99.90;;;;;;5058448;28;20036;-69
2020/12/11 06:12:42;;;;;;;35.08;19.00;;;2.40;99.90;;;;;;5061105;28;20033;-69
2020/12/11 06:15:32;;;;;;;33.83;17.45;;;2.40;99.90;;;;;;5059856;28;20051;-69
2020/12/11 06:18:09;;;;;;;34.90;18.77;;;2.40;99.90;;;;;;5058927;28;20111;-69
2020/12/11 06:20:36;;;;;;;32.30;18.55;;;2.40;99.90;;;;;;5055034;28;20033;-69
2020/12/11 06:23:22;;;;;;;30.70;16.77;;;2.40;99.90;;;;;;5059954;28;20028;-69
2020/12/11 06:25:54;;;;;;;32.70;17.95;;;2.40;99.90;;;;;;5065804;28;20077;-69
2020/12/11 06:28:35;;;;;;;36.88;18.67;;;2.50;99.90;;;;;;5059709;28;20493;-69
2020/12/11 06:31:02;;;;;;;33.88;18.02;;;2.50;99.90;;;;;;5056571;28;20096;-69
2020/12/11 06:33:32;;;;;;;32.60;17.83;;;2.50;99.90;;;;;;5062945;28;20036;-69
2020/12/11 06:36:00;;;;;;;31.38;16.42;;;2.50;99.90;;;;;;5060802;28;20560;-69
2020/12/11 06:39:01;;;;;;;31.50;16.83;;;2.50;99.90;;;;;;5065453;28;20052;-69
2020/12/11 06:41:32;;;;;;;32.83;18.05;;;2.50;99.90;;;;;;5026184;28;20531;-69
2020/12/11 06:44:13;;;;;;;33.10;16.27;;;2.50;99.90;;;;;;5052761;28;20041;-69
2020/12/11 06:46:38;;;;;;;29.98;16.52;;;2.50;99.90;;;;;;5057870;28;20071;-69
2020/12/11 06:49:17;;;;;;;33.17;16.70;;;2.50;99.90;;;;;;5058816;28;20016;-69
2020/12/11 06:51:46;;;;;;;32.42;17.17;;;2.50;99.90;;;;;;5057076;28;20096;-69
2020/12/11 06:54:13;;;;;;;29.27;16.20;;;2.50;99.90;;;;;;5053780;28;20033;-69
2020/12/11 06:56:45;;;;;;;34.00;18.15;;;2.50;99.90;;;;;;5058182;28;20106;-69
2020/12/11 06:59:23;;;;;;;;;;;2.50;99.90;;;;;;5058257;28;20059;-70
2020/12/11 07:01:53;;;;;;;32.08;16.00;;;2.60;99.90;;;;;;5054607;28;19916;-69
2020/12/11 07:04:19;;;;;;;31.27;15.82;;;2.60;99.90;;;;;;5055767;28;20033;-69
2020/12/11 07:06:47;;;;;;;32.58;18.30;;;2.70;99.90;;;;;;5059389;28;20497;-69
2020/12/11 07:09:14;;;;;;;33.97;17.40;;;2.60;99.90;;;;;;5058128;28;20029;-69
2020/12/11 07:11:39;;;;;;;30.02;17.23;;;2.70;99.90;;;;;;5057937;28;20047;-69
2020/12/11 07:14:05;;;;;;;31.50;17.20;;;2.60;99.90;;;;;;5057968;28;20489;-69
2020/12/11 07:16:38;;;;;;;30.13;17.00;;;2.60;99.90;;;;;;5057040;28;20031;-69
2020/12/11 07:19:05;;;;;;;29.50;16.08;;;2.60;99.90;;;;;;5062008;28;20020;-70
2020/12/11 07:21:32;;;;;;;28.88;15.85;;;2.60;99.90;;;;;;5059629;28;20033;-70
2020/12/11 07:23:58;;;;;;;31.73;17.48;;;2.60;99.90;;;;;;5056872;28;20017;-70
2020/12/11 07:26:23;;;;;;;34.40;16.73;;;2.60;99.90;;;;;;5061536;28;20033;-70
2020/12/11 07:29:07;;;;;;;31.25;16.65;;;2.60;99.90;;;;;;5054896;28;20424;-69
2020/12/11 07:31:54;;;;;;;28.80;15.48;;;2.50;99.90;;;;;;5056087;28;20047;-70
2020/12/11 07:34:22;;;;;;;24.88;14.77;;;2.50;99.90;;;;;;5054860;28;20393;-70
2020/12/11 07:36:55;;;;;;;28.42;16.05;;;2.50;99.90;;;;;;5052348;28;20036;-70
2020/12/11 07:39:22;;;;;;;31.63;16.48;;;2.60;99.90;;;;;;5054557;28;20509;-70
2020/12/11 07:41:49;;;;;;;32.47;17.15;;;2.60;99.90;;;;;;5058575;28;20036;-70
2020/12/11 07:44:30;;;;;;;31.33;17.90;;;2.60;99.90;;;;;;5057885;28;20405;-69
2020/12/11 07:47:16;;;;;;;29.27;16.77;;;2.60;99.90;;;;;;5055391;28;20021;-70
2020/12/11 07:49:44;;;;;;;31.35;16.08;;;2.70;99.90;;;;;;5060242;28;20056;-70
2020/12/11 07:52:12;;;;;;;32.80;17.27;;;2.60;99.90;;;;;;5060262;28;20023;-70
2020/12/11 07:54:41;;;;;;;27.80;15.95;;;2.60;99.90;;;;;;5058685;28;20067;-70
2020/12/11 07:57:22;;;;;;;32.88;18.48;;;2.50;99.90;;;;;;5058729;28;20060;-70
2020/12/11 08:00:03;;;;;;;34.67;17.80;;;2.60;99.90;;;;;;5056515;28;20032;-70
2020/12/11 08:02:31;;;;;;;33.67;18.02;;;2.60;99.90;;;;;;5062210;28;20108;-70
2020/12/11 08:04:57;;;;;;;30.73;18.30;;;2.60;99.90;;;;;;5058409;28;20041;-70
2020/12/11 08:07:26;;;;;;;29.13;17.50;;;2.60;99.90;;;;;;5059452;28;20028;-70
2020/12/11 08:09:52;;;;;;;35.13;17.85;;;2.60;99.90;;;;;;5067429;28;20466;-70
2020/12/11 08:12:20;;;;;;;33.38;18.17;;;2.60;99.90;;;;;;5059345;28;20021;-70
2020/12/11 08:14:46;;;;;;;34.65;19.33;;;2.60;99.90;;;;;;5052918;28;20044;-70
2020/12/11 08:17:14;;;;;;;28.90;17.75;;;2.70;99.90;;;;;;5056110;28;20458;-70
2020/12/11 08:19:43;;;;;;;31.08;16.77;;;2.70;99.90;;;;;;5055258;28;20037;-70
2020/12/11 08:22:16;;;;;;;31.27;16.75;;;2.70;99.90;;;;;;5043418;28;20553;-70
2020/12/11 08:24:44;;;;;;;32.10;17.45;;;2.70;99.90;;;;;;5061047;28;20016;-70
2020/12/11 08:27:28;;;;;;;32.08;18.75;;;2.70;99.90;;;;;;5065049;28;20047;-70
2020/12/11 08:30:17;;;;;;;33.05;18.58;;;2.80;99.90;;;;;;5063209;28;20025;-70
2020/12/11 08:32:45;;;;;;;30.30;17.02;;;2.80;99.90;;;;;;5057177;28;20454;-70
2020/12/11 08:35:19;;;;;;;30.17;17.00;;;2.80;99.90;;;;;;5056385;28;20025;-70
2020/12/11 08:38:11;;;;;;;30.20;17.33;;;2.80;99.90;;;;;;5059473;28;20160;-70
2020/12/11 08:40:47;;;;;;;28.88;16.70;;;2.80;99.90;;;;;;5062230;28;20040;-70
2020/12/11 08:46:04;;;;;;;32.40;17.30;;;2.80;99.90;;;;;;5051517;28;20044;-69
2020/12/11 08:48:55;;;;;;;33.35;17.63;;;2.80;99.90;;;;;;5053595;28;20078;-70
2020/12/11 08:51:18;;;;;;;33.97;18.13;;;2.90;99.90;;;;;;5052590;28;20123;-71
2020/12/11 08:53:53;;;;;;;30.63;18.20;;;2.90;99.90;;;;;;5049314;28;20116;-71
2020/12/11 08:56:19;;;;;;;29.73;17.75;;;2.90;99.90;;;;;;5054125;28;20442;-71
2020/12/11 08:58:44;;;;;;;29.67;17.77;;;2.90;99.90;;;;;;5057416;28;20113;-69
2020/12/11 09:01:10;;;;;;;30.85;16.58;;;2.90;99.90;;;;;;5053676;28;20036;-70
2020/12/11 09:03:35;;;;;;;31.35;17.10;;;3.00;99.90;;;;;;5053097;28;20481;-69
2020/12/11 09:06:01;;;;;;;30.08;17.13;;;3.00;99.90;;;;;;5053506;28;20398;-69
2020/12/11 09:08:27;;;;;;;28.13;16.48;;;3.10;99.90;;;;;;5049038;28;20139;-69
2020/12/11 09:10:52;;;;;;;31.02;16.80;;;3.10;99.90;;;;;;5055344;28;20040;-69
2020/12/11 09:13:18;;;;;;;30.67;17.30;;;3.20;99.90;;;;;;5056677;28;20101;-69
2020/12/11 09:15:43;;;;;;;32.67;17.85;;;3.20;99.90;;;;;;5052309;28;20032;-69
2020/12/11 09:18:09;;;;;;;28.88;16.90;;;3.20;99.90;;;;;;5061174;28;20116;-69
2020/12/11 09:20:34;;;;;;;28.85;15.68;;;3.30;99.90;;;;;;5059242;28;20428;-69
2020/12/11 09:23:00;;;;;;;29.02;16.58;;;3.30;99.90;;;;;;5055427;28;20053;-69
2020/12/11 09:25:26;;;;;;;29.10;16.40;;;3.30;99.90;;;;;;5058051;28;20302;-69
2020/12/11 09:27:52;;;;;;;29.88;17.48;;;3.30;99.90;;;;;;5066749;28;20082;-68
2020/12/11 09:30:25;;;;;;;29.40;17.27;;;3.40;99.90;;;;;;5058295;28;20529;-69
2020/12/11 09:35:20;;;;;;;28.80;17.45;;;3.50;99.90;;;;;;5060019;28;20059;-69
2020/12/11 09:37:49;;;;;;;27.80;16.33;;;3.50;99.90;;;;;;5058446;28;20029;-68
2020/12/11 09:40:17;;;;;;;28.58;17.45;;;3.50;99.90;;;;;;5056560;28;20087;-70
2020/12/11 09:50:49;;;;;;;30.08;18.15;;;3.60;99.90;;;;;;5057844;28;20032;-70
2020/12/11 09:53:42;;;;;;;30.15;17.02;;;3.70;99.90;;;;;;5059881;28;20067;-68
2020/12/11 09:56:07;;;;;;;31.98;17.42;;;3.70;99.90;;;;;;5064799;28;20040;-69
2020/12/11 09:58:34;;;;;;;30.20;17.20;;;3.70;99.90;;;;;;5063817;28;20039;-70
2020/12/11 10:01:01;;;;;;;28.17;15.88;;;3.80;99.90;;;;;;5059025;28;20157;-69
2020/12/11 10:03:33;;;;;;;25.50;15.40;;;3.80;99.90;;;;;;5062568;28;20013;-69
2020/12/11 10:05:59;;;;;;;29.08;16.23;;;3.90;99.90;;;;;;5057864;28;20033;-69
2020/12/11 10:08:24;;;;;;;26.73;16.17;;;3.80;99.90;;;;;;5063802;28;20027;-69
2020/12/11 10:10:50;;;;;;;26.92;16.25;;;3.90;99.90;;;;;;5067574;28;20119;-70
2020/12/11 10:13:15;;;;;;;28.08;16.75;;;3.80;99.90;;;;;;5058830;28;20401;-70
2020/12/11 10:15:41;;;;;;;26.20;15.82;;;3.90;99.90;;;;;;5060222;28;20029;-70
2020/12/11 10:18:06;;;;;;;26.27;15.20;;;3.90;99.90;;;;;;5062298;28;20039;-70
2020/12/11 10:20:34;;;;;;;26.73;15.30;;;4.00;99.90;;;;;;5065016;28;20048;-70
2020/12/11 10:23:00;;;;;;;25.38;16.10;;;4.00;99.90;;;;;;5063022;28;20016;-70
2020/12/11 10:25:26;;;;;;;32.08;17.60;;;4.00;99.90;;;;;;5060027;28;20499;-70
2020/12/11 10:27:52;;;;;;;28.02;16.88;;;4.00;99.90;;;;;;5062282;28;20019;-70
2020/12/11 10:30:18;;;;;;;27.52;16.13;;;4.00;99.90;;;;;;5061903;28;20041;-70
2020/12/11 10:32:43;;;;;;;31.10;17.13;;;4.10;99.90;;;;;;5063982;28;20688;-70
2020/12/11 10:35:09;;;;;;;28.38;16.95;;;4.10;99.90;;;;;;5064168;28;20025;-70
2020/12/11 10:37:35;;;;;;;26.50;15.45;;;4.00;99.90;;;;;;5069011;28;20021;-70
2020/12/11 10:40:03;;;;;;;28.13;15.75;;;4.10;99.90;;;;;;5061676;28;20052;-70
2020/12/11 10:42:29;;;;;;;28.88;16.08;;;4.10;99.90;;;;;;5065260;28;20524;-70
2020/12/11 10:44:55;;;;;;;29.52;18.40;;;4.20;99.90;;;;;;5067338;28;20025;-70
2020/12/11 10:47:20;;;;;;;28.48;15.45;;;4.20;99.90;;;;;;5057712;28;20507;-70
2020/12/11 10:49:46;;;;;;;26.77;16.20;;;4.20;99.90;;;;;;5067843;28;20436;-70
2020/12/11 10:52:11;;;;;;;27.15;16.27;;;4.30;99.90;;;;;;5064336;28;20024;-70
2020/12/11 10:54:37;;;;;;;28.98;15.82;;;4.30;99.90;;;;;;5061195;28;20033;-70
2020/12/11 10:57:03;;;;;;;27.88;16.08;;;4.40;99.90;;;;;;5066996;28;20020;-70
2020/12/11 10:59:28;;;;;;;23.83;14.82;;;4.40;99.90;;;;;;5054491;28;20108;-70
2020/12/11 11:01:54;;;;;;;28.88;15.98;;;4.40;99.90;;;;;;5057884;28;20083;-70
2020/12/11 11:04:19;;;;;;;28.25;16.38;;;4.40;99.90;;;;;;5053231;28;20486;-70
2020/12/11 11:06:51;;;;;;;25.30;15.35;;;4.50;99.90;;;;;;5055327;28;20036;-70
2020/12/11 11:10:27;;;;;;;30.43;15.50;;;4.50;99.90;;;;;;5057029;28;20432;-70
2020/12/11 11:15:16;;;;;;;27.15;15.82;;;4.60;99.90;;;;;;5066099;28;20347;-70
2020/12/11 11:23:43;;;;;;;27.70;16.55;;;4.70;99.90;;;;;;5014969;28;20029;-70
2020/12/11 11:28:34;;;;;;;26.05;16.83;;;4.90;99.90;;;;;;5064460;28;20036;-70
2020/12/11 11:31:00;;;;;;;25.58;15.13;;;4.90;99.90;;;;;;5063282;28;20016;-69
2020/12/11 11:33:26;;;;;;;24.63;15.35;;;5.00;99.90;;;;;;5064593;28;20037;-69
2020/12/11 11:35:51;;;;;;;25.30;16.15;;;5.00;99.90;;;;;;5058833;28;20033;-69
2020/12/11 11:38:19;;;;;;;27.17;15.65;;;5.00;99.90;;;;;;5051324;28;20032;-69
2020/12/11 11:40:45;;;;;;;26.02;15.05;;;5.00;99.90;;;;;;5056427;28;20049;-69
2020/12/11 11:43:11;;;;;;;24.33;15.52;;;5.00;99.90;;;;;;5060636;28;20032;-69
2020/12/11 11:45:38;;;;;;;23.27;15.10;;;5.00;99.90;;;;;;5057666;28;20055;-69
2020/12/11 11:48:10;;;;;;;24.80;14.68;;;5.10;99.90;;;;;;5055087;28;20024;-70
2020/12/11 11:53:14;;;;;;;26.27;15.15;;;5.10;99.90;;;;;;5061008;28;19974;-69
2020/12/11 11:55:41;;;;;;;29.33;16.40;;;5.10;99.90;;;;;;5061201;28;20132;-69
2020/12/11 11:58:08;;;;;;;27.30;15.68;;;5.00;99.90;;;;;;5066517;28;20052;-70
2020/12/11 12:00:34;;;;;;;31.90;17.75;;;5.00;99.90;;;;;;5060042;28;20041;-70
2020/12/11 12:02:59;;;;;;;29.40;16.13;;;5.10;99.90;;;;;;5069834;28;20074;-70
2020/12/11 12:05:25;;;;;;;26.55;16.55;;;5.10;99.90;;;;;;5058948;28;20024;-70
2020/12/11 12:07:50;;;;;;;29.10;17.40;;;5.10;99.90;;;;;;5055339;28;20386;-71
2020/12/11 12:10:16;;;;;;;30.83;17.08;;;5.20;99.90;;;;;;5056441;28;20074;-71
2020/12/11 12:12:43;;;;;;;27.65;16.65;;;5.20;99.90;;;;;;5059777;28;20060;-71
2020/12/11 12:15:12;;;;;;;30.02;17.33;;;5.20;99.90;;;;;;5058716;28;20393;-71
2020/12/11 12:17:43;;;;;;;31.45;17.13;;;5.20;99.90;;;;;;5061217;28;20070;-71
2020/12/11 12:20:15;;;;;;;29.83;16.77;;;5.30;99.90;;;;;;5056717;28;20040;-71
2020/12/11 12:23:20;;;;;;;29.02;17.17;;;5.30;99.90;;;;;;5056288;28;20025;-71
2020/12/11 12:30:54;;;;;;;29.17;17.17;;;5.40;99.90;;;;;;5054787;28;20103;-71
2020/12/11 12:43:56;;;;;;;33.00;16.92;;;5.60;99.90;;;;;;5055062;28;20035;-71
2020/12/11 12:46:22;;;;;;;35.75;16.75;;;5.60;99.90;;;;;;5060827;28;20056;-71
2020/12/11 12:48:48;;;;;;;29.13;16.63;;;5.60;99.90;;;;;;5061739;28;20466;-72
2020/12/11 12:51:13;;;;;;;33.45;18.27;;;5.60;99.90;;;;;;5061426;28;20036;-71
2020/12/11 12:53:39;;;;;;;35.55;17.05;;;5.60;99.90;;;;;;5058817;28;20028;-71
2020/12/11 12:58:53;;;;;;;25.80;16.10;;;5.60;99.90;;;;;;5062375;28;20105;-71
2020/12/11 13:01:33;;;;;;;30.05;16.60;;;5.60;99.90;;;;;;5060923;28;20491;-72
2020/12/11 13:06:24;;;;;;;31.08;17.20;;;5.70;99.90;;;;;;5064888;28;20033;-72
2020/12/11 13:08:49;;;;;;;31.98;17.30;;;5.70;99.90;;;;;;5063753;28;20047;-73
2020/12/11 13:11:15;;;;;;;32.15;17.55;;;5.60;99.90;;;;;;5064429;28;20147;-74
2020/12/11 13:13:40;;;;;;;31.05;18.50;;;5.60;99.90;;;;;;5060313;28;20032;-74
2020/12/11 13:16:06;;;;;;;31.15;18.00;;;5.60;99.90;;;;;;5058383;28;20040;-72
2020/12/11 13:18:32;;;;;;;29.58;17.92;;;5.70;99.90;;;;;;5062736;28;20032;-72
2020/12/11 13:21:02;;;;;;;30.15;18.20;;;5.60;99.90;;;;;;5059733;28;20513;-72
2020/12/11 13:26:22;;;;;;;38.30;20.23;;;5.60;99.90;;;;;;5063771;28;20090;-71
2020/12/11 13:28:47;;;;;;;30.83;18.50;;;5.60;99.90;;;;;;5060852;28;20039;-72
2020/12/11 13:31:17;;;;;;;35.90;19.92;;;5.60;99.90;;;;;;5057658;28;20028;-72
2020/12/11 13:33:43;;;;;;;29.27;16.98;;;5.70;99.90;;;;;;5061771;28;20350;-72
2020/12/11 13:36:09;;;;;;;29.85;17.52;;;5.50;99.90;;;;;;5059156;28;20037;-71